Terminal Aerodrome Forecast
Issued by NWS

Home | Current Version | Previous Version | Text Only | Print | Product List | Glossary On
Versions: 1 2 3 4 5 6 7 8 9 10 11 12 13 14 15 16 17 18
000
FTAK31 PANC 171129
TAFADQ
TAF
PADQ 171129Z 1712/1812 33010KT P6SM -SHRA BKN015 OVC025
     FM180200 VRB05KT P6SM -SHRA BKN015 OVC030
     FM180600 27005KT 6SM -SHRA BKN015 OVC030=

USA.gov is the U.S. government's official web portal to all federal, state and local government web resources and services.